Dexter, Kansas
Current Conditions -  °F | °C
As of 11:54 AM on Friday 24 Oct 2014 (Local Time) from KWLD Reporting Station
Clear Clear  
Wind Chill: 69°   Ceiling: Unl
Heat Index: 69°   Visibility: 10mi
Dew Point: 60°   Wind: 8mph
Humidity: 73%   Direction: 190°S
Pressure: 30.1"   Gusts: NA
Location:  37.18°N, 96.71°W
Report Text: KWLD 241654Z AUTO 19007KT 10SM CLR 21/16 A3010 RMK AO2 SLP185 T02060156
Loading
Personal Weather Stations






























Interactive Weather Map
Tropical Storm Tracking
New forecast layout! Learn more

10-Day Weather Forecast

Advertisements
Track Severe Weather on mobile